createdAt,value
2023-03-02T00:00:34.840Z,4.93
2023-03-02T00:01:49.972Z,4.99
2023-03-02T00:02:51.912Z,4.93
2023-03-02T00:03:54.472Z,4.22
2023-03-02T00:04:58.568Z,5.13
2023-03-02T00:06:00.909Z,5.09
2023-03-02T00:07:06.121Z,4.95
2023-03-02T00:08:09.752Z,4.14
2023-03-02T00:09:11.904Z,4.96
2023-03-02T00:10:13.690Z,4.97
2023-03-02T00:11:15.509Z,5.01
2023-03-02T00:12:17.680Z,4.90
2023-03-02T00:13:19.875Z,4.89
2023-03-02T00:14:22.159Z,4.58
2023-03-02T00:15:24.074Z,4.83
2023-03-02T00:16:26.263Z,4.92
2023-03-02T00:17:28.211Z,4.93
2023-03-02T00:18:30.178Z,4.91
2023-03-02T00:19:31.956Z,4.91
2023-03-02T00:20:33.632Z,5.06
2023-03-02T00:21:35.282Z,4.80
2023-03-02T00:22:42.606Z,4.95
2023-03-02T00:23:44.517Z,4.88
2023-03-02T00:24:46.384Z,5.06
2023-03-02T00:25:48.153Z,4.03
2023-03-02T00:26:49.887Z,4.03
2023-03-02T00:27:51.622Z,5.01
2023-03-02T00:28:53.370Z,4.81
2023-03-02T00:29:55.177Z,5.07
2023-03-02T00:30:57.194Z,5.20
2023-03-02T00:31:59.100Z,4.71
2023-03-02T00:33:01.064Z,4.86
2023-03-02T00:34:02.917Z,4.75
2023-03-02T00:35:06.097Z,4.92
2023-03-02T00:36:18.444Z,4.73
2023-03-02T00:37:20.813Z,5.13
2023-03-02T00:38:22.620Z,5.11
2023-03-02T00:39:24.671Z,5.08
2023-03-02T00:40:26.448Z,4.56
2023-03-02T00:41:28.203Z,4.81
2023-03-02T00:42:30.451Z,5.05
2023-03-02T00:43:32.156Z,4.87
2023-03-02T00:44:33.972Z,4.60
2023-03-02T00:45:35.696Z,4.83
2023-03-02T00:46:37.649Z,4.67
2023-03-02T00:47:41.547Z,4.69
2023-03-02T00:48:44.386Z,4.77
2023-03-02T00:49:46.230Z,4.76
2023-03-02T00:50:47.995Z,4.79
2023-03-02T00:51:49.688Z,4.63
2023-03-02T00:52:51.518Z,4.87
2023-03-02T00:53:53.419Z,5.11
2023-03-02T00:54:55.084Z,5.02
2023-03-02T00:55:56.795Z,5.16
2023-03-02T00:56:58.840Z,5.04
2023-03-02T00:58:00.655Z,5.10
2023-03-02T00:59:07.563Z,5.12
2023-03-02T01:00:10.001Z,5.11
2023-03-02T01:01:13.484Z,3.84
2023-03-02T01:02:15.329Z,4.50
2023-03-02T01:03:17.280Z,4.95
2023-03-02T01:04:19.014Z,4.88
2023-03-02T01:05:21.200Z,4.73
2023-03-02T01:06:23.549Z,4.18
2023-03-02T01:07:25.583Z,4.66
2023-03-02T01:08:27.420Z,4.45
2023-03-02T01:09:29.844Z,4.76
2023-03-02T01:10:33.064Z,4.14
2023-03-02T01:11:34.829Z,4.49
2023-03-02T01:12:36.689Z,4.34
2023-03-02T01:13:38.539Z,4.62
2023-03-02T01:14:44.533Z,4.62
2023-03-02T01:15:46.626Z,4.63
2023-03-02T01:16:48.590Z,4.53
2023-03-02T01:17:50.331Z,4.65
2023-03-02T01:18:52.008Z,4.46
2023-03-02T01:19:54.099Z,4.67
2023-03-02T01:21:12.230Z,4.70
2023-03-02T01:22:14.161Z,4.64
2023-03-02T01:23:15.915Z,4.52
2023-03-02T01:24:17.629Z,4.71
2023-03-02T01:25:20.163Z,4.67
2023-03-02T01:26:22.358Z,4.72
2023-03-02T01:27:24.112Z,4.74
2023-03-02T01:28:26.020Z,4.77
2023-03-02T01:29:27.985Z,4.60
2023-03-02T01:30:29.705Z,4.85
2023-03-02T01:31:31.857Z,3.51
2023-03-02T01:32:33.714Z,4.57
2023-03-02T01:33:35.652Z,4.88
2023-03-02T01:34:37.587Z,4.33
2023-03-02T01:35:39.599Z,4.75
2023-03-02T01:36:41.610Z,4.70
2023-03-02T01:37:43.730Z,4.80
2023-03-02T01:38:46.074Z,4.74
2023-03-02T01:39:48.199Z,4.77
2023-03-02T01:40:50.016Z,3.56
2023-03-02T01:41:53.135Z,4.83
2023-03-02T01:43:00.378Z,4.79
2023-03-02T01:44:02.294Z,4.00
2023-03-02T01:45:04.718Z,4.89
2023-03-02T01:46:12.457Z,4.94
2023-03-02T01:47:49.708Z,4.97
2023-03-02T01:49:00.067Z,4.94
2023-03-02T01:50:19.187Z,4.78
2023-03-02T01:51:24.104Z,4.94
2023-03-02T01:52:27.273Z,4.77
2023-03-02T01:53:32.929Z,4.40
2023-03-02T01:54:35.452Z,4.98
2023-03-02T01:55:38.259Z,4.97
2023-03-02T01:56:40.978Z,4.24
2023-03-02T01:57:46.810Z,4.90
2023-03-02T01:58:54.059Z,4.71
2023-03-02T02:00:01.883Z,4.83
2023-03-02T02:01:04.871Z,4.75
2023-03-02T02:02:11.040Z,4.78
2023-03-02T02:03:17.790Z,4.22
2023-03-02T02:04:21.842Z,4.57
2023-03-02T02:05:25.570Z,4.56
2023-03-02T02:06:47.247Z,4.65
2023-03-02T02:07:49.298Z,4.57
2023-03-02T02:08:54.484Z,4.72
2023-03-02T02:09:57.142Z,4.55
2023-03-02T02:10:59.566Z,4.55
2023-03-02T02:12:01.599Z,4.79
2023-03-02T02:13:03.863Z,4.73
2023-03-02T02:14:06.883Z,4.82
2023-03-02T02:15:09.756Z,4.15
2023-03-02T02:16:11.918Z,4.86
2023-03-02T02:17:15.368Z,4.91
2023-03-02T02:18:17.361Z,4.81
2023-03-02T02:19:52.092Z,4.67
2023-03-02T02:20:55.637Z,4.49
2023-03-02T02:22:15.496Z,4.90
2023-03-02T02:23:28.085Z,4.96
2023-03-02T02:24:37.803Z,4.84
2023-03-02T02:25:51.520Z,4.87
2023-03-02T02:26:55.527Z,4.81
2023-03-02T02:27:57.837Z,4.06
2023-03-02T02:29:01.254Z,4.85
2023-03-02T02:30:04.812Z,4.87
2023-03-02T02:31:06.659Z,4.97
2023-03-02T02:32:27.653Z,4.90
2023-03-02T02:33:31.165Z,4.97
2023-03-02T02:34:39.628Z,5.00
2023-03-02T02:35:41.579Z,4.89
2023-03-02T02:36:48.753Z,5.02
2023-03-02T02:38:11.797Z,4.93
2023-03-02T02:39:24.710Z,5.02
2023-03-02T02:40:57.318Z,4.70
2023-03-02T02:42:03.464Z,4.98
2023-03-02T02:43:07.059Z,4.93
2023-03-02T02:44:15.063Z,4.73
2023-03-02T02:45:27.949Z,4.72
2023-03-02T02:46:29.926Z,4.96
2023-03-02T02:47:32.470Z,3.45
2023-03-02T02:48:34.842Z,4.76
2023-03-02T02:49:40.445Z,4.89
2023-03-02T02:50:43.908Z,4.76
2023-03-02T02:51:45.849Z,4.81
2023-03-02T02:52:53.688Z,4.72
2023-03-02T02:54:01.499Z,4.75
2023-03-02T02:55:03.507Z,4.73
2023-03-02T02:56:08.818Z,4.65
2023-03-02T02:57:13.286Z,3.19
2023-03-02T02:58:47.219Z,4.56
2023-03-02T02:59:53.085Z,4.34
2023-03-02T03:00:55.263Z,4.61
2023-03-02T03:01:57.914Z,4.76
2023-03-02T03:03:06.452Z,4.79
2023-03-02T03:04:14.299Z,4.79
2023-03-02T03:05:16.897Z,4.71
2023-03-02T03:06:24.161Z,4.73
2023-03-02T03:07:26.006Z,3.74
2023-03-02T03:08:46.127Z,4.87
2023-03-02T03:10:04.360Z,4.78
2023-03-02T03:11:06.479Z,4.81
2023-03-02T03:12:22.204Z,4.81
2023-03-02T03:13:24.313Z,4.69
2023-03-02T03:14:34.694Z,4.69
2023-03-02T03:15:36.593Z,4.62
2023-03-02T03:16:42.673Z,4.71
2023-03-02T03:17:58.291Z,4.71
2023-03-02T03:19:09.847Z,4.56
2023-03-02T03:20:16.647Z,4.44
2023-03-02T03:21:18.360Z,4.67
2023-03-02T03:22:20.327Z,3.61
2023-03-02T03:23:22.301Z,4.75
2023-03-02T03:24:25.388Z,4.72
2023-03-02T03:25:27.914Z,3.88
2023-03-02T03:26:30.344Z,4.66
2023-03-02T03:27:32.412Z,4.69
2023-03-02T03:28:34.173Z,4.66
2023-03-02T03:29:38.822Z,4.65
2023-03-02T03:30:40.633Z,4.66
2023-03-02T03:31:43.294Z,4.62
2023-03-02T03:32:45.207Z,3.67
2023-03-02T03:33:47.255Z,3.31
2023-03-02T03:34:49.708Z,4.53
2023-03-02T03:35:51.850Z,4.59
2023-03-02T03:36:53.654Z,3.43
2023-03-02T03:37:55.408Z,4.06
2023-03-02T03:38:57.836Z,4.58
2023-03-02T03:39:59.488Z,4.46
2023-03-02T03:41:01.218Z,3.88
2023-03-02T03:42:04.050Z,4.32
2023-03-02T03:43:06.118Z,4.38
2023-03-02T03:44:09.082Z,4.59
2023-03-02T03:45:11.381Z,4.56
2023-03-02T03:46:13.988Z,4.53
2023-03-02T03:47:15.825Z,4.55
2023-03-02T03:48:17.730Z,4.50
2023-03-02T03:49:19.394Z,3.75
2023-03-02T03:50:21.851Z,4.16
2023-03-02T03:51:24.259Z,4.48
2023-03-02T03:52:26.087Z,4.53
2023-03-02T03:53:28.543Z,4.51
2023-03-02T03:54:30.364Z,3.14
2023-03-02T03:55:32.167Z,4.60
2023-03-02T03:56:37.257Z,4.16
2023-03-02T03:57:39.204Z,4.65
2023-03-02T03:58:41.070Z,4.42
2023-03-02T03:59:42.999Z,4.57
2023-03-02T04:00:45.191Z,4.50
2023-03-02T04:01:53.468Z,4.54
2023-03-02T04:02:55.407Z,3.34
2023-03-02T04:03:57.094Z,3.47
2023-03-02T04:04:58.805Z,4.50
2023-03-02T04:06:00.641Z,4.55
2023-03-02T04:07:02.460Z,4.64
2023-03-02T04:08:04.424Z,4.52
2023-03-02T04:09:07.149Z,4.54
2023-03-02T04:10:10.311Z,4.77
2023-03-02T04:11:12.548Z,4.77
2023-03-02T04:12:14.336Z,3.95
2023-03-02T04:13:16.118Z,4.87
2023-03-02T04:14:19.119Z,4.84
2023-03-02T04:15:20.877Z,4.85
2023-03-02T04:16:22.616Z,4.85
2023-03-02T04:17:25.226Z,4.79
2023-03-02T04:18:27.066Z,3.85
2023-03-02T04:19:29.536Z,4.71
2023-03-02T04:20:31.998Z,4.69
2023-03-02T04:21:33.902Z,4.62
2023-03-02T04:22:35.753Z,4.65
2023-03-02T04:23:37.418Z,4.58
2023-03-02T04:24:39.126Z,3.67
2023-03-02T04:25:40.839Z,4.81
2023-03-02T04:26:42.955Z,3.80
2023-03-02T04:27:44.816Z,4.76
2023-03-02T04:28:46.533Z,4.77
2023-03-02T04:29:48.436Z,4.51
2023-03-02T04:30:50.286Z,4.76
2023-03-02T04:31:52.251Z,4.73
2023-03-02T04:32:54.490Z,4.63
2023-03-02T04:33:56.206Z,4.82
2023-03-02T04:34:57.854Z,4.50
2023-03-02T04:35:59.644Z,4.78
2023-03-02T04:37:01.625Z,4.67
2023-03-02T04:38:03.568Z,4.67
2023-03-02T04:39:07.238Z,4.68
2023-03-02T04:40:11.839Z,4.29
2023-03-02T04:41:13.907Z,3.64
2023-03-02T04:42:15.655Z,4.53
2023-03-02T04:43:17.388Z,4.61
2023-03-02T04:44:19.689Z,4.34
2023-03-02T04:45:21.631Z,4.43
2023-03-02T04:46:25.668Z,4.33
2023-03-02T04:47:27.654Z,4.35
2023-03-02T04:48:30.118Z,4.47
2023-03-02T04:49:32.042Z,4.29
2023-03-02T04:50:34.353Z,4.25
2023-03-02T04:51:41.334Z,4.46
2023-03-02T04:52:43.218Z,4.47
2023-03-02T04:53:45.051Z,4.52
2023-03-02T04:54:47.591Z,4.47
2023-03-02T04:55:51.419Z,3.91
2023-03-02T04:56:54.517Z,4.59
2023-03-02T04:57:56.223Z,4.75
2023-03-02T04:58:58.441Z,4.74
2023-03-02T05:00:00.208Z,4.75
2023-03-02T05:01:01.905Z,4.63
2023-03-02T05:02:03.845Z,4.81
2023-03-02T05:03:06.753Z,4.71
2023-03-02T05:04:08.939Z,4.76
2023-03-02T05:05:23.978Z,4.77
2023-03-02T05:06:25.836Z,4.69
2023-03-02T05:07:28.282Z,4.72
2023-03-02T05:08:31.035Z,4.05
2023-03-02T05:09:32.894Z,4.56
2023-03-02T05:10:34.818Z,4.58
2023-03-02T05:11:36.589Z,3.54
2023-03-02T05:12:38.315Z,3.33
2023-03-02T05:13:39.987Z,4.39
2023-03-02T05:14:41.680Z,4.64
2023-03-02T05:15:43.556Z,4.18
2023-03-02T05:16:45.392Z,4.34
2023-03-02T05:17:47.263Z,4.66
2023-03-02T05:18:49.532Z,4.59
2023-03-02T05:19:51.664Z,4.73
2023-03-02T05:20:55.347Z,4.42
2023-03-02T05:21:57.118Z,4.67
2023-03-02T05:23:03.732Z,4.77
2023-03-02T05:24:06.511Z,4.58
2023-03-02T05:25:08.831Z,4.49
2023-03-02T05:26:11.727Z,4.61
2023-03-02T05:27:13.441Z,4.37
2023-03-02T05:28:15.149Z,4.64
2023-03-02T05:29:16.905Z,4.78
2023-03-02T05:30:20.263Z,4.83
2023-03-02T05:31:33.694Z,4.76
2023-03-02T05:32:35.506Z,4.86
2023-03-02T05:33:37.541Z,4.84
2023-03-02T05:34:39.304Z,4.69
2023-03-02T05:35:42.362Z,4.81
2023-03-02T05:36:45.524Z,4.86
2023-03-02T05:37:47.269Z,4.91
2023-03-02T05:38:49.020Z,4.90
2023-03-02T05:39:50.908Z,4.79
2023-03-02T05:40:52.780Z,4.85
2023-03-02T05:41:54.485Z,4.51
2023-03-02T05:42:56.502Z,4.50
2023-03-02T05:43:58.336Z,4.44
2023-03-02T05:45:00.071Z,4.87
2023-03-02T05:46:03.239Z,4.90
2023-03-02T05:47:05.350Z,4.83
2023-03-02T05:48:08.143Z,4.85
2023-03-02T05:49:09.942Z,4.79
2023-03-02T05:50:12.098Z,5.02
2023-03-02T05:51:13.772Z,4.85
2023-03-02T05:52:15.562Z,4.90
2023-03-02T05:53:17.259Z,4.96
2023-03-02T05:54:18.963Z,5.09
2023-03-02T05:55:21.112Z,5.08
2023-03-02T05:56:22.811Z,5.04
2023-03-02T05:57:24.652Z,5.05
2023-03-02T05:58:26.476Z,4.99
2023-03-02T05:59:28.246Z,4.86
2023-03-02T06:00:30.061Z,4.82
2023-03-02T06:01:32.217Z,4.71
2023-03-02T06:02:34.318Z,4.81
2023-03-02T06:03:36.222Z,4.67
2023-03-02T06:04:38.002Z,4.65
2023-03-02T06:05:39.841Z,4.77
2023-03-02T06:06:41.656Z,4.39
2023-03-02T06:07:44.009Z,4.94
2023-03-02T06:08:45.848Z,4.88
2023-03-02T06:09:48.059Z,4.82
2023-03-02T06:10:49.816Z,4.57
2023-03-02T06:11:51.528Z,4.89
2023-03-02T06:12:53.383Z,4.86
2023-03-02T06:13:55.026Z,4.70
2023-03-02T06:14:56.746Z,4.51
2023-03-02T06:15:58.724Z,4.81
2023-03-02T06:17:00.931Z,4.52
2023-03-02T06:18:03.803Z,4.74
2023-03-02T06:19:06.256Z,4.82
2023-03-02T06:20:08.984Z,4.87
2023-03-02T06:21:10.818Z,4.77
2023-03-02T06:22:12.548Z,4.71
2023-03-02T06:23:14.248Z,4.79
2023-03-02T06:24:16.260Z,4.51
2023-03-02T06:25:21.072Z,4.86
2023-03-02T06:26:23.505Z,4.89
2023-03-02T06:27:25.535Z,4.88
2023-03-02T06:28:27.575Z,4.92
2023-03-02T06:29:29.384Z,4.77
2023-03-02T06:30:31.108Z,4.87
2023-03-02T06:31:32.811Z,4.92
2023-03-02T06:32:34.802Z,4.77
2023-03-02T06:33:36.539Z,4.92
2023-03-02T06:34:38.515Z,4.92
2023-03-02T06:35:40.393Z,4.93
2023-03-02T06:36:42.408Z,4.88
2023-03-02T06:37:44.571Z,4.96
2023-03-02T06:38:46.381Z,4.84
2023-03-02T06:39:48.069Z,4.85
2023-03-02T06:40:49.803Z,4.81
2023-03-02T06:41:51.460Z,4.78
2023-03-02T06:42:53.168Z,4.88
2023-03-02T06:43:54.818Z,4.91
2023-03-02T06:44:56.593Z,4.91
2023-03-02T06:45:58.575Z,5.00
2023-03-02T06:47:00.461Z,4.93
2023-03-02T06:48:02.771Z,4.96
2023-03-02T06:49:05.332Z,5.04
2023-03-02T06:50:07.970Z,4.92
2023-03-02T06:51:09.632Z,4.90
2023-03-02T06:52:11.311Z,5.01
2023-03-02T06:53:12.975Z,5.11
2023-03-02T06:54:14.688Z,4.80
2023-03-02T06:55:16.522Z,5.02
2023-03-02T06:56:18.627Z,5.04
2023-03-02T06:57:20.850Z,5.07
2023-03-02T06:58:22.978Z,4.70
2023-03-02T06:59:24.969Z,5.06
2023-03-02T07:00:26.798Z,5.13
2023-03-02T07:01:28.626Z,5.15
2023-03-02T07:02:30.464Z,5.06
2023-03-02T07:03:32.244Z,5.18
2023-03-02T07:04:34.042Z,5.13
2023-03-02T07:05:35.731Z,5.20
2023-03-02T07:06:37.402Z,5.18
2023-03-02T07:07:39.729Z,5.02
2023-03-02T07:08:41.522Z,5.13
2023-03-02T07:09:43.489Z,4.39
2023-03-02T07:10:45.638Z,4.97
2023-03-02T07:11:47.313Z,5.16
2023-03-02T07:12:49.057Z,4.84
2023-03-02T07:13:50.747Z,4.84
2023-03-02T07:14:52.619Z,5.23
2023-03-02T07:15:54.267Z,5.19
2023-03-02T07:16:55.991Z,5.22
2023-03-02T07:17:57.713Z,5.22
2023-03-02T07:18:59.471Z,5.28
2023-03-02T07:20:01.263Z,5.35
2023-03-02T07:21:03.472Z,4.63
2023-03-02T07:22:06.264Z,5.39
2023-03-02T07:23:08.183Z,5.15
2023-03-02T07:24:09.912Z,5.12
2023-03-02T07:25:14.201Z,3.96
2023-03-02T07:26:15.922Z,5.40
2023-03-02T07:27:17.810Z,5.19
2023-03-02T07:28:19.739Z,5.40
2023-03-02T07:29:21.519Z,5.29
2023-03-02T07:30:23.593Z,5.34
2023-03-02T07:31:26.339Z,5.24
2023-03-02T07:32:28.559Z,5.31
2023-03-02T07:33:30.442Z,5.06
2023-03-02T07:34:32.320Z,5.41
2023-03-02T07:35:34.156Z,5.45
2023-03-02T07:36:35.873Z,5.35
2023-03-02T07:37:37.518Z,5.42
2023-03-02T07:38:39.327Z,5.21
2023-03-02T07:39:41.137Z,5.47
2023-03-02T07:40:43.607Z,5.39
2023-03-02T07:41:45.627Z,5.51
2023-03-02T07:42:47.349Z,5.39
2023-03-02T07:43:49.309Z,5.49
2023-03-02T07:44:53.486Z,5.18
2023-03-02T07:45:55.288Z,5.42
2023-03-02T07:46:57.225Z,4.74
2023-03-02T07:48:00.090Z,5.54
2023-03-02T07:49:02.163Z,5.45
2023-03-02T07:50:04.317Z,4.87
2023-03-02T07:51:07.199Z,5.54
2023-03-02T07:52:09.147Z,5.56
2023-03-02T07:53:11.924Z,5.50
2023-03-02T07:54:13.740Z,5.60
2023-03-02T07:55:15.423Z,5.66
2023-03-02T07:56:17.527Z,5.63
2023-03-02T07:57:19.242Z,5.57
2023-03-02T07:58:21.735Z,5.54
2023-03-02T07:59:24.310Z,5.75
2023-03-02T08:00:26.271Z,5.68
2023-03-02T08:01:28.101Z,5.55
2023-03-02T08:02:29.943Z,5.44
2023-03-02T08:03:31.676Z,5.50
2023-03-02T08:04:35.346Z,5.64
2023-03-02T08:05:37.035Z,5.81
2023-03-02T08:06:40.563Z,4.88
2023-03-02T08:07:43.877Z,5.80
2023-03-02T08:08:46.052Z,5.22
2023-03-02T08:09:48.151Z,5.76
2023-03-02T08:10:49.923Z,5.71
2023-03-02T08:11:51.658Z,5.22
2023-03-02T08:12:53.314Z,5.81
2023-03-02T08:13:55.026Z,5.73
2023-03-02T08:14:56.770Z,5.76
2023-03-02T08:16:02.785Z,5.90
2023-03-02T08:17:05.832Z,5.86
2023-03-02T08:18:07.959Z,5.87
2023-03-02T08:19:09.773Z,5.76
2023-03-02T08:20:12.035Z,5.75
2023-03-02T08:21:22.808Z,5.72
2023-03-02T08:22:24.846Z,5.64
2023-03-02T08:23:27.968Z,5.05
2023-03-02T08:24:29.949Z,5.93
2023-03-02T08:25:31.671Z,5.71
2023-03-02T08:26:33.410Z,6.05
2023-03-02T08:27:35.448Z,5.51
2023-03-02T08:28:37.277Z,5.89
2023-03-02T08:29:38.945Z,5.96
2023-03-02T08:30:41.176Z,6.09
2023-03-02T08:31:43.310Z,5.53
2023-03-02T08:32:45.485Z,6.20
2023-03-02T08:33:47.227Z,5.96
2023-03-02T08:34:49.161Z,6.04
2023-03-02T08:36:04.568Z,6.23
2023-03-02T08:37:06.518Z,6.26
2023-03-02T08:38:08.642Z,6.24
2023-03-02T08:39:10.899Z,5.97
2023-03-02T08:40:15.271Z,5.14
2023-03-02T08:41:20.043Z,5.91
2023-03-02T08:42:21.797Z,5.80
2023-03-02T08:43:25.515Z,6.04
2023-03-02T08:44:27.380Z,6.11
2023-03-02T08:45:29.098Z,5.87
2023-03-02T08:46:30.974Z,6.08
2023-03-02T08:47:32.935Z,5.90
2023-03-02T08:48:34.642Z,5.96
2023-03-02T08:49:36.622Z,5.99
2023-03-02T08:50:38.392Z,6.22
2023-03-02T08:51:40.259Z,5.97
2023-03-02T08:52:42.089Z,6.17
2023-03-02T08:53:46.911Z,6.29
2023-03-02T08:54:49.036Z,6.18
2023-03-02T08:55:51.256Z,6.24
2023-03-02T08:56:52.956Z,6.01
2023-03-02T08:57:54.626Z,5.95
2023-03-02T08:59:01.940Z,6.31
2023-03-02T09:00:04.639Z,6.36
2023-03-02T09:01:06.495Z,6.31
2023-03-02T09:02:11.382Z,6.47
2023-03-02T09:03:13.135Z,6.02
2023-03-02T09:04:14.863Z,6.07
2023-03-02T09:05:16.613Z,6.10
2023-03-02T09:06:18.994Z,6.35
2023-03-02T09:07:20.853Z,6.29
2023-03-02T09:08:22.806Z,6.28
2023-03-02T09:09:24.823Z,6.24
2023-03-02T09:10:26.651Z,6.18
2023-03-02T09:11:28.857Z,6.22
2023-03-02T09:12:30.885Z,6.13
2023-03-02T09:13:33.006Z,6.05
2023-03-02T09:14:34.824Z,6.01
2023-03-02T09:15:36.612Z,6.28
2023-03-02T09:16:38.435Z,6.25
2023-03-02T09:17:40.245Z,5.92
2023-03-02T09:18:42.471Z,6.35
2023-03-02T09:19:44.749Z,6.21
2023-03-02T09:20:53.242Z,6.22
2023-03-02T09:21:54.982Z,6.28
2023-03-02T09:22:56.775Z,6.22
2023-03-02T09:23:58.585Z,6.35
2023-03-02T09:25:00.317Z,6.40
2023-03-02T09:26:02.604Z,6.27
2023-03-02T09:27:04.544Z,6.30
2023-03-02T09:28:06.432Z,6.20
2023-03-02T09:29:09.061Z,5.95
2023-03-02T09:30:12.144Z,6.10
2023-03-02T09:31:13.936Z,5.12
2023-03-02T09:32:15.836Z,6.18
2023-03-02T09:33:18.279Z,6.02
2023-03-02T09:34:20.006Z,5.45
2023-03-02T09:35:21.749Z,5.90
2023-03-02T09:36:25.701Z,6.00
2023-03-02T09:37:30.703Z,6.01
2023-03-02T09:38:32.416Z,6.06
2023-03-02T09:39:34.122Z,6.12
2023-03-02T09:40:47.258Z,5.31
2023-03-02T09:42:18.704Z,6.11
2023-03-02T09:43:59.922Z,6.11
2023-03-02T09:45:21.052Z,6.04
2023-03-02T09:46:30.312Z,6.08
2023-03-02T09:47:50.851Z,5.40
2023-03-02T09:49:07.802Z,5.20
2023-03-02T09:50:35.126Z,6.19
2023-03-02T09:52:01.230Z,6.22
2023-03-02T09:53:28.760Z,6.35
2023-03-02T09:54:30.794Z,6.23
2023-03-02T09:55:36.500Z,6.26
2023-03-02T09:56:47.822Z,6.32
2023-03-02T09:57:50.759Z,6.48
2023-03-02T09:59:01.030Z,6.42
2023-03-02T10:00:18.524Z,6.52
2023-03-02T10:01:32.623Z,6.58
2023-03-02T10:02:51.332Z,6.38
2023-03-02T10:04:01.629Z,6.59
2023-03-02T10:05:07.931Z,6.59
2023-03-02T10:06:09.828Z,6.58
2023-03-02T10:07:33.230Z,6.30
2023-03-02T10:08:37.184Z,6.45
2023-03-02T10:09:40.232Z,6.48
2023-03-02T10:11:05.532Z,5.36
2023-03-02T10:12:33.042Z,6.45
2023-03-02T10:13:40.882Z,6.36
2023-03-02T10:14:48.822Z,6.31
2023-03-02T10:16:00.810Z,6.19
2023-03-02T10:17:23.866Z,6.29
2023-03-02T10:18:49.740Z,6.27
2023-03-02T10:20:02.991Z,6.12
2023-03-02T10:21:12.601Z,5.13
2023-03-02T10:22:29.069Z,6.10
2023-03-02T10:23:58.216Z,6.05
2023-03-02T10:25:24.216Z,5.94
2023-03-02T10:26:37.595Z,5.82
2023-03-02T10:27:48.161Z,6.01
2023-03-02T10:28:57.062Z,6.01
2023-03-02T10:30:03.445Z,6.06
2023-03-02T10:31:13.548Z,6.19
2023-03-02T10:32:30.029Z,6.17
2023-03-02T10:33:32.396Z,6.00
2023-03-02T10:34:37.772Z,6.11
2023-03-02T10:35:45.920Z,5.90
2023-03-02T10:36:51.102Z,5.84
2023-03-02T10:38:31.604Z,4.61
2023-03-02T10:39:33.608Z,5.43
2023-03-02T10:40:42.975Z,5.31
2023-03-02T10:42:07.467Z,5.07
2023-03-02T10:43:26.412Z,6.04
2023-03-02T10:44:33.227Z,5.93
2023-03-02T10:45:35.183Z,6.03
2023-03-02T10:46:45.988Z,5.81
2023-03-02T10:47:48.007Z,5.79
2023-03-02T10:48:54.405Z,6.03
2023-03-02T10:49:57.999Z,6.03
2023-03-02T10:51:00.111Z,5.51
2023-03-02T10:52:13.008Z,6.01
2023-03-02T10:53:18.039Z,5.86
2023-03-02T10:54:19.746Z,5.95
2023-03-02T10:55:21.416Z,5.89
2023-03-02T10:56:23.211Z,5.88
2023-03-02T10:57:35.610Z,5.19
2023-03-02T10:58:37.429Z,5.91
2023-03-02T10:59:43.708Z,6.00
2023-03-02T11:03:02.538Z,5.74
2023-03-02T11:04:04.442Z,5.80
2023-03-02T11:05:24.226Z,5.20
2023-03-02T11:06:27.301Z,5.87
2023-03-02T11:07:29.948Z,4.94
2023-03-02T11:08:31.715Z,5.95
2023-03-02T11:09:33.870Z,5.97
2023-03-02T11:10:51.227Z,5.39
2023-03-02T11:11:56.505Z,5.81
2023-03-02T11:13:00.402Z,6.05
2023-03-02T11:14:16.475Z,5.83
2023-03-02T11:15:18.136Z,6.24
2023-03-02T11:16:19.938Z,6.13
2023-03-02T11:17:34.592Z,6.25
2023-03-02T11:18:45.970Z,6.40
2023-03-02T11:19:48.206Z,6.40
2023-03-02T11:20:56.248Z,6.50
2023-03-02T11:22:10.356Z,6.56
2023-03-02T11:23:36.220Z,6.51
2023-03-02T11:24:48.847Z,6.51
2023-03-02T11:25:58.602Z,6.01
2023-03-02T11:27:22.551Z,6.43
2023-03-02T11:28:52.692Z,6.59
2023-03-02T11:30:02.728Z,6.47
2023-03-02T11:31:11.454Z,6.34
2023-03-02T11:32:34.708Z,5.90
2023-03-02T11:33:44.299Z,6.51
2023-03-02T11:34:56.658Z,6.66
2023-03-02T11:36:22.198Z,6.53
2023-03-02T11:37:32.354Z,6.47
2023-03-02T11:38:47.274Z,6.24
2023-03-02T11:39:55.531Z,6.47
2023-03-02T11:40:57.917Z,6.44
2023-03-02T11:41:59.935Z,6.44
2023-03-02T11:43:03.525Z,6.29
2023-03-02T11:44:20.650Z,5.08
2023-03-02T11:45:29.955Z,6.37
2023-03-02T11:46:33.969Z,6.37
2023-03-02T11:47:37.507Z,6.39
2023-03-02T11:48:49.909Z,6.44
2023-03-02T11:49:57.335Z,6.35
2023-03-02T11:51:29.205Z,6.39
2023-03-02T11:52:37.820Z,6.42
2023-03-02T11:53:49.058Z,6.47
2023-03-02T11:55:04.875Z,5.15
2023-03-02T11:56:07.773Z,6.44
2023-03-02T11:57:29.887Z,6.05
2023-03-02T11:58:33.136Z,6.39
2023-03-02T11:59:36.178Z,6.47
2023-03-02T12:00:41.562Z,6.47
2023-03-02T12:01:48.392Z,6.36
2023-03-02T12:03:22.296Z,6.42
2023-03-02T12:04:42.374Z,5.37
2023-03-02T12:05:59.724Z,6.27
2023-03-02T12:07:04.258Z,6.27
2023-03-02T12:08:27.423Z,6.47
2023-03-02T12:09:37.709Z,4.25
2023-03-02T12:10:43.570Z,6.33
2023-03-02T12:11:46.015Z,6.30
2023-03-02T12:12:59.978Z,6.35
2023-03-02T12:14:05.350Z,6.25
2023-03-02T12:15:45.765Z,6.36
2023-03-02T12:16:47.886Z,6.13
2023-03-02T12:17:50.057Z,5.83
2023-03-02T12:18:52.948Z,6.32
2023-03-02T12:20:07.276Z,6.29
2023-03-02T12:21:27.466Z,6.06
2023-03-02T12:22:40.364Z,5.71
2023-03-02T12:23:51.886Z,6.09
2023-03-02T12:25:23.020Z,6.00
2023-03-02T12:26:45.825Z,5.94
2023-03-02T12:27:50.630Z,5.95
2023-03-02T12:29:11.047Z,6.03
2023-03-02T12:32:34.893Z,6.00
2023-03-02T12:33:46.916Z,5.63
2023-03-02T12:35:03.636Z,6.30
2023-03-02T12:36:14.142Z,6.23
2023-03-02T12:37:28.160Z,6.25
2023-03-02T12:38:34.058Z,6.23
2023-03-02T12:40:20.716Z,6.30
2023-03-02T12:41:39.842Z,5.78
2023-03-02T12:43:00.132Z,6.39
2023-03-02T12:44:23.442Z,6.46
2023-03-02T12:45:37.501Z,6.52
2023-03-02T12:46:45.654Z,6.22
2023-03-02T12:47:55.897Z,6.55
2023-03-02T12:49:29.416Z,6.55
2023-03-02T12:50:37.112Z,6.62
2023-03-02T12:51:55.418Z,5.92
2023-03-02T12:53:16.581Z,6.81
2023-03-02T12:54:24.022Z,6.77
2023-03-02T12:55:25.984Z,6.82
2023-03-02T12:56:28.387Z,6.88
2023-03-02T12:57:30.570Z,6.93
2023-03-02T12:58:32.409Z,6.91
2023-03-02T12:59:34.766Z,6.73
2023-03-02T13:00:36.756Z,6.85
2023-03-02T13:01:38.578Z,6.89
2023-03-02T13:02:46.654Z,7.03
2023-03-02T13:03:48.611Z,6.95
2023-03-02T13:04:57.431Z,6.68
2023-03-02T13:06:15.119Z,6.63
2023-03-02T13:07:20.511Z,6.86
2023-03-02T13:08:27.348Z,6.67
2023-03-02T13:09:29.725Z,6.72
2023-03-02T13:10:39.916Z,6.72
2023-03-02T13:11:44.339Z,6.73
2023-03-02T13:12:46.616Z,6.58
2023-03-02T13:13:48.781Z,6.64
2023-03-02T13:14:55.157Z,6.76
2023-03-02T13:16:00.151Z,6.42
2023-03-02T13:17:02.944Z,6.11
2023-03-02T13:18:04.824Z,6.66
2023-03-02T13:19:14.239Z,6.64
2023-03-02T13:20:16.249Z,6.92
2023-03-02T13:21:18.895Z,6.86
2023-03-02T13:22:21.693Z,6.90
2023-03-02T13:23:23.569Z,7.05
2023-03-02T13:24:59.082Z,7.12
2023-03-02T13:26:05.756Z,7.07
2023-03-02T13:27:16.018Z,6.94
2023-03-02T13:28:32.683Z,6.87
2023-03-02T13:29:34.886Z,7.12
2023-03-02T13:30:37.732Z,7.11
2023-03-02T13:31:39.589Z,7.17
2023-03-02T13:32:42.098Z,6.64
2023-03-02T13:33:45.748Z,7.09
2023-03-02T13:34:51.099Z,5.95
2023-03-02T13:35:53.459Z,7.01
2023-03-02T13:36:55.858Z,6.80
2023-03-02T13:38:04.960Z,6.94
2023-03-02T13:39:18.189Z,6.76
2023-03-02T13:40:22.891Z,6.60
2023-03-02T13:41:30.398Z,5.88
2023-03-02T13:42:39.359Z,6.74
2023-03-02T13:43:41.293Z,5.92
2023-03-02T13:44:42.999Z,6.53
2023-03-02T13:45:53.728Z,6.48
2023-03-02T13:46:56.257Z,6.44
2023-03-02T13:48:11.975Z,6.37
2023-03-02T13:49:14.289Z,6.25
2023-03-02T13:50:22.032Z,6.36
2023-03-02T13:51:24.203Z,5.64
2023-03-02T13:52:31.118Z,6.32
2023-03-02T13:53:33.640Z,6.23
2023-03-02T13:54:37.689Z,5.24
2023-03-02T13:55:40.101Z,6.04
2023-03-02T13:56:44.053Z,6.05
2023-03-02T13:57:47.144Z,6.26
2023-03-02T13:58:49.183Z,5.40
2023-03-02T13:59:51.246Z,6.35
2023-03-02T14:00:54.375Z,6.25
2023-03-02T14:01:56.243Z,6.30
2023-03-02T14:02:58.877Z,6.05
2023-03-02T14:04:00.635Z,6.37
2023-03-02T14:05:02.614Z,5.20
2023-03-02T14:06:05.075Z,6.23
2023-03-02T14:07:07.003Z,6.19
2023-03-02T14:08:08.683Z,6.33
2023-03-02T14:09:10.618Z,6.20
2023-03-02T14:10:14.734Z,6.41
2023-03-02T14:11:18.697Z,6.18
2023-03-02T14:12:20.279Z,6.41
2023-03-02T14:13:30.082Z,6.25
2023-03-02T14:14:37.069Z,4.92
2023-03-02T14:15:42.431Z,6.34
2023-03-02T14:16:44.305Z,6.24
2023-03-02T14:17:46.023Z,6.33
2023-03-02T14:18:49.982Z,6.40
2023-03-02T14:19:52.761Z,4.62
2023-03-02T14:20:55.132Z,6.43
2023-03-02T14:21:57.137Z,6.27
2023-03-02T14:22:58.967Z,6.32
2023-03-02T14:24:00.746Z,6.21
2023-03-02T14:25:02.441Z,6.23
2023-03-02T14:26:19.306Z,6.18
2023-03-02T14:27:25.472Z,5.53
2023-03-02T14:28:33.028Z,6.14
2023-03-02T14:29:35.046Z,6.11
2023-03-02T14:30:37.044Z,6.05
2023-03-02T14:31:38.876Z,5.91
2023-03-02T14:32:40.585Z,6.15
2023-03-02T14:33:42.244Z,5.14